Time;durP1;ratioP1;P1;durP2;ratioP2;P2;SDS_P1;SDS_P2;PMS_P1;PMS_P2;Temp;Humidity;BMP_temperature;BMP_pressure;BME280_temperature;BME280_humidity;BME280_pressure;Samples;Min_cycle;Max_cycle;Signal;HPM_P1;HPM_P2
2023/06/02 00:00:40;;;;;;;11.13;2.55;;;;;;;;;;5041156;28;20392;-76
2023/06/02 00:03:06;;;;;;;8.77;2.25;;;;;;;;;;5042297;28;20037;-77
2023/06/02 00:05:32;;;;;;;8.43;2.00;;;;;;;;;;5015859;28;20122;-76
2023/06/02 00:07:58;;;;;;;5.88;1.65;;;;;;;;;;5023276;28;20639;-77
2023/06/02 00:10:24;;;;;;;7.53;2.22;;;;;;;;;;5020057;28;20065;-77
2023/06/02 00:12:49;;;;;;;9.90;2.47;;;;;;;;;;5016901;28;20361;-77
2023/06/02 00:15:15;;;;;;;6.15;1.83;;;;;;;;;;5024517;28;20117;-77
2023/06/02 00:17:40;;;;;;;7.85;2.28;;;;;;;;;;5024690;28;20203;-77
2023/06/02 00:20:06;;;;;;;12.00;2.42;;;;;;;;;;5025173;28;20484;-77
2023/06/02 00:22:32;;;;;;;9.98;2.10;;;;;;;;;;5008827;28;20044;-77
2023/06/02 00:24:58;;;;;;;8.68;1.88;;;;;;;;;;5043049;28;20120;-77
2023/06/02 00:27:23;;;;;;;8.07;2.85;;;;;;;;;;5041763;28;20037;-78
2023/06/02 00:29:50;;;;;;;9.15;2.15;;;;;;;;;;5020356;28;20071;-77
2023/06/02 00:32:15;;;;;;;11.20;2.50;;;;;;;;;;5040733;28;20033;-77
2023/06/02 00:34:41;;;;;;;8.23;2.60;;;;;;;;;;5026035;28;20036;-77
2023/06/02 00:37:06;;;;;;;12.13;2.67;;;;;;;;;;5042535;28;20037;-78
2023/06/02 00:39:31;;;;;;;10.15;2.42;;;;;;;;;;5030104;28;20048;-78
2023/06/02 00:41:57;;;;;;;7.88;2.25;;;;;;;;;;5028848;28;20029;-77
2023/06/02 00:44:23;;;;;;;7.93;2.60;;;;;;;;;;5011461;28;20053;-77
2023/06/02 00:46:48;;;;;;;10.82;2.40;;;;;;;;;;5028165;28;20195;-77
2023/06/02 00:49:13;;;;;;;8.02;2.42;;;;;;;;;;5029638;28;20052;-77
2023/06/02 00:51:40;;;;;;;9.45;2.25;;;;;;;;;;5027163;28;20139;-77
2023/06/02 00:54:06;;;;;;;7.70;2.05;;;;;;;;;;5019709;28;20029;-77
2023/06/02 00:56:33;;;;;;;10.70;2.83;;;;;;;;;;5029775;28;20040;-78
2023/06/02 00:58:59;;;;;;;12.48;3.13;;;;;;;;;;5028351;28;20045;-77
2023/06/02 01:01:25;;;;;;;8.02;1.90;;;;;;;;;;5026378;28;20044;-77
2023/06/02 01:03:50;;;;;;;8.63;2.30;;;;;;;;;;5025951;28;20033;-77
2023/06/02 01:06:23;;;;;;;11.80;2.80;;;;;;;;;;5012154;28;20159;-77
2023/06/02 01:08:49;;;;;;;8.82;2.65;;;;;;;;;;5020175;28;20066;-77
2023/06/02 01:11:15;;;;;;;8.38;2.50;;;;;;;;;;5027300;28;20028;-77
2023/06/02 01:13:40;;;;;;;8.77;2.40;;;;;;;;;;5041145;28;20037;-77
2023/06/02 01:16:06;;;;;;;9.27;2.20;;;;;;;;;;5024115;28;20115;-77
2023/06/02 01:18:35;;;;;;;9.30;2.75;;;;;;;;;;5043092;28;20025;-78
2023/06/02 01:21:01;;;;;;;13.35;2.75;;;;;;;;;;5026549;28;20048;-77
2023/06/02 01:23:33;;;;;;;13.48;2.65;;;;;;;;;;5029140;28;20056;-77
2023/06/02 01:26:00;;;;;;;13.38;2.97;;;;;;;;;;5016146;28;20065;-78
2023/06/02 01:28:26;;;;;;;12.10;2.63;;;;;;;;;;5026847;28;20033;-77
2023/06/02 01:31:07;;;;;;;9.43;2.22;;;;;;;;;;5026949;28;20064;-77
2023/06/02 01:33:32;;;;;;;10.55;2.38;;;;;;;;;;5027113;28;20132;-77
2023/06/02 01:35:59;;;;;;;10.27;2.53;;;;;;;;;;5043407;28;20155;-77
2023/06/02 01:38:26;;;;;;;9.07;2.50;;;;;;;;;;5028508;28;20048;-76
2023/06/02 01:40:53;;;;;;;7.93;2.42;;;;;;;;;;5023696;28;20048;-77
2023/06/02 01:43:18;;;;;;;9.80;2.40;;;;;;;;;;5011716;28;20058;-77
2023/06/02 01:45:44;;;;;;;8.45;2.15;;;;;;;;;;5025829;28;20053;-77
2023/06/02 01:48:10;;;;;;;12.32;2.85;;;;;;;;;;5010475;28;20047;-77
2023/06/02 01:50:37;;;;;;;10.85;2.70;;;;;;;;;;5011229;28;20037;-77
2023/06/02 01:53:03;;;;;;;11.98;2.70;;;;;;;;;;5011420;28;20412;-78
2023/06/02 01:55:28;;;;;;;11.73;2.78;;;;;;;;;;5044825;28;20033;-77
2023/06/02 01:57:53;;;;;;;6.63;2.00;;;;;;;;;;5042019;28;20114;-77
2023/06/02 02:00:19;;;;;;;6.97;2.30;;;;;;;;;;5004259;28;20048;-77
2023/06/02 02:02:45;;;;;;;8.13;2.13;;;;;;;;;;5043627;28;20136;-77
2023/06/02 02:05:11;;;;;;;8.70;2.65;;;;;;;;;;5025089;28;20033;-78
2023/06/02 02:07:37;;;;;;;7.80;2.42;;;;;;;;;;5043464;28;20045;-77
2023/06/02 02:10:03;;;;;;;8.90;2.55;;;;;;;;;;5044441;28;20044;-78
2023/06/02 02:12:29;;;;;;;8.68;2.33;;;;;;;;;;5043101;28;20451;-78
2023/06/02 02:14:56;;;;;;;10.00;2.17;;;;;;;;;;5025364;28;20036;-77
2023/06/02 02:17:25;;;;;;;11.57;2.50;;;;;;;;;;5026532;28;20080;-77
2023/06/02 02:19:51;;;;;;;6.55;2.40;;;;;;;;;;5014890;28;20057;-77
2023/06/02 02:22:17;;;;;;;15.63;2.63;;;;;;;;;;5043068;28;20047;-77
2023/06/02 02:24:42;;;;;;;11.57;3.10;;;;;;;;;;5044254;28;20489;-77
2023/06/02 02:27:08;;;;;;;9.40;2.60;;;;;;;;;;5044075;28;20029;-77
2023/06/02 02:29:36;;;;;;;9.90;2.53;;;;;;;;;;5026196;28;20040;-78
2023/06/02 02:32:01;;;;;;;12.40;2.63;;;;;;;;;;5009246;28;20040;-77
2023/06/02 02:34:28;;;;;;;9.20;2.83;;;;;;;;;;5026940;28;20479;-77
2023/06/02 02:36:58;;;;;;;9.57;2.40;;;;;;;;;;5043718;28;20044;-77
2023/06/02 02:39:24;;;;;;;7.60;2.30;;;;;;;;;;5040805;28;20048;-77
2023/06/02 02:41:49;;;;;;;12.50;2.38;;;;;;;;;;5025296;28;20037;-77
2023/06/02 02:44:14;;;;;;;9.50;2.60;;;;;;;;;;5042832;28;20072;-77
2023/06/02 02:46:40;;;;;;;8.90;2.60;;;;;;;;;;5041743;28;20053;-77
2023/06/02 02:49:06;;;;;;;12.23;2.58;;;;;;;;;;5025984;28;20503;-77
2023/06/02 02:51:32;;;;;;;10.68;2.60;;;;;;;;;;5038762;28;20033;-77
2023/06/02 02:53:57;;;;;;;10.63;2.75;;;;;;;;;;5044210;28;20041;-77
2023/06/02 02:56:23;;;;;;;10.77;2.80;;;;;;;;;;5023482;28;20406;-77
2023/06/02 02:58:48;;;;;;;12.52;2.40;;;;;;;;;;5039489;28;20032;-77
2023/06/02 03:01:15;;;;;;;11.73;2.58;;;;;;;;;;5024966;28;20110;-77
2023/06/02 03:03:41;;;;;;;8.65;2.53;;;;;;;;;;5014889;28;20404;-77
2023/06/02 03:06:07;;;;;;;11.25;2.53;;;;;;;;;;5040650;28;20048;-76
2023/06/02 03:08:32;;;;;;;8.38;2.38;;;;;;;;;;5043547;28;20116;-77
2023/06/02 03:10:58;;;;;;;8.70;2.65;;;;;;;;;;5026432;28;20102;-78
2023/06/02 03:13:23;;;;;;;16.05;3.60;;;;;;;;;;5026370;28;20033;-78
2023/06/02 03:15:49;;;;;;;10.00;2.35;;;;;;;;;;5024810;28;20084;-77
2023/06/02 03:18:14;;;;;;;12.65;2.90;;;;;;;;;;5022097;28;20036;-77
2023/06/02 03:20:41;;;;;;;13.00;2.45;;;;;;;;;;5036037;28;20531;-77
2023/06/02 03:23:06;;;;;;;10.55;3.05;;;;;;;;;;5041607;28;20773;-77
2023/06/02 03:25:32;;;;;;;9.05;2.95;;;;;;;;;;5040953;28;20035;-77
2023/06/02 03:27:57;;;;;;;9.07;2.65;;;;;;;;;;5043331;28;20040;-77
2023/06/02 03:30:23;;;;;;;9.73;2.42;;;;;;;;;;5021997;28;20040;-77
2023/06/02 03:32:49;;;;;;;10.30;2.70;;;;;;;;;;5042409;28;20083;-77
2023/06/02 03:35:15;;;;;;;9.18;2.17;;;;;;;;;;5025041;28;20534;-77
2023/06/02 03:37:40;;;;;;;10.68;2.50;;;;;;;;;;5042676;28;20048;-77
2023/06/02 03:40:07;;;;;;;12.65;2.25;;;;;;;;;;5042020;28;20025;-77
2023/06/02 03:42:33;;;;;;;10.25;2.58;;;;;;;;;;5040434;28;20032;-77
2023/06/02 03:44:58;;;;;;;11.32;2.60;;;;;;;;;;5015196;28;20041;-77
2023/06/02 03:47:23;;;;;;;12.10;3.10;;;;;;;;;;5024780;28;20052;-77
2023/06/02 03:49:50;;;;;;;8.82;2.60;;;;;;;;;;5042319;28;20221;-77
2023/06/02 03:52:15;;;;;;;11.80;2.78;;;;;;;;;;5041329;28;20033;-77
2023/06/02 03:54:40;;;;;;;11.20;2.70;;;;;;;;;;5024866;28;20515;-77
2023/06/02 03:57:06;;;;;;;13.23;2.95;;;;;;;;;;5042267;28;20416;-77
2023/06/02 03:59:31;;;;;;;8.77;2.47;;;;;;;;;;5040034;28;20481;-78
2023/06/02 04:01:57;;;;;;;9.73;2.65;;;;;;;;;;5008978;28;20067;-77
2023/06/02 04:04:22;;;;;;;12.88;2.78;;;;;;;;;;5022233;28;20030;-77
2023/06/02 04:06:47;;;;;;;12.23;2.30;;;;;;;;;;5039058;28;20097;-77
2023/06/02 04:09:13;;;;;;;10.38;2.35;;;;;;;;;;5026373;28;20033;-77
2023/06/02 04:11:39;;;;;;;11.93;2.45;;;;;;;;;;5010895;28;20045;-78
2023/06/02 04:14:04;;;;;;;15.38;2.65;;;;;;;;;;5013506;28;20029;-78
2023/06/02 04:16:30;;;;;;;8.55;2.42;;;;;;;;;;5028884;28;20037;-78
2023/06/02 04:18:55;;;;;;;10.85;2.72;;;;;;;;;;5029546;28;20037;-78
2023/06/02 04:21:20;;;;;;;10.75;2.97;;;;;;;;;;5024693;28;20052;-77
2023/06/02 04:23:46;;;;;;;11.90;2.67;;;;;;;;;;5046406;28;20036;-77
2023/06/02 04:26:11;;;;;;;10.13;2.72;;;;;;;;;;5026885;28;20444;-77
2023/06/02 04:28:37;;;;;;;8.32;2.30;;;;;;;;;;5027304;28;20056;-78
2023/06/02 04:31:02;;;;;;;9.25;3.03;;;;;;;;;;5042702;28;20504;-77
2023/06/02 04:33:28;;;;;;;10.43;2.67;;;;;;;;;;5046374;28;20033;-77
2023/06/02 04:35:56;;;;;;;9.38;2.28;;;;;;;;;;5028916;28;20059;-77
2023/06/02 04:38:21;;;;;;;14.55;2.80;;;;;;;;;;5028587;28;20057;-78
2023/06/02 04:40:47;;;;;;;12.45;3.10;;;;;;;;;;5028961;28;20029;-78
2023/06/02 04:43:12;;;;;;;7.75;2.65;;;;;;;;;;5043619;28;20037;-77
2023/06/02 04:45:43;;;;;;;14.82;3.00;;;;;;;;;;5024665;28;20122;-77
2023/06/02 04:48:08;;;;;;;16.02;3.00;;;;;;;;;;5044823;28;20115;-77
2023/06/02 04:50:34;;;;;;;12.23;2.60;;;;;;;;;;5043948;28;20035;-78
2023/06/02 04:52:59;;;;;;;8.38;2.28;;;;;;;;;;5018977;28;20039;-78
2023/06/02 04:55:24;;;;;;;12.77;3.17;;;;;;;;;;5025510;28;20056;-78
2023/06/02 04:57:50;;;;;;;10.27;2.40;;;;;;;;;;5027696;28;20103;-78
2023/06/02 05:00:16;;;;;;;14.93;2.78;;;;;;;;;;5011430;28;20531;-78
2023/06/02 05:02:42;;;;;;;14.43;2.90;;;;;;;;;;5012156;28;20033;-83
2023/06/02 05:05:07;;;;;;;16.00;3.17;;;;;;;;;;5026228;28;20029;-83
2023/06/02 05:07:33;;;;;;;11.27;2.60;;;;;;;;;;5030630;28;20049;-82
2023/06/02 05:09:58;;;;;;;10.77;2.65;;;;;;;;;;5044979;28;20481;-81
2023/06/02 05:12:25;;;;;;;11.77;2.85;;;;;;;;;;5045726;28;20091;-77
2023/06/02 05:14:51;;;;;;;8.05;2.58;;;;;;;;;;5011657;28;20488;-77
2023/06/02 05:17:23;;;;;;;17.50;3.90;;;;;;;;;;5011213;28;20071;-77
2023/06/02 05:19:50;;;;;;;10.05;2.63;;;;;;;;;;5026851;28;20462;-79
2023/06/02 05:22:16;;;;;;;15.45;3.05;;;;;;;;;;5022473;28;20099;-79
2023/06/02 05:24:41;;;;;;;12.82;2.88;;;;;;;;;;5019274;28;20041;-78
2023/06/02 05:27:07;;;;;;;9.27;2.80;;;;;;;;;;5023917;28;20477;-78
2023/06/02 05:29:33;;;;;;;13.23;3.13;;;;;;;;;;5024819;28;20040;-79
2023/06/02 05:31:58;;;;;;;12.00;2.92;;;;;;;;;;5023560;28;20047;-79
2023/06/02 05:34:23;;;;;;;13.15;3.50;;;;;;;;;;5013889;28;20049;-78
2023/06/02 05:36:49;;;;;;;10.20;2.92;;;;;;;;;;5024831;28;20121;-79
2023/06/02 05:39:15;;;;;;;16.15;3.00;;;;;;;;;;5025909;28;20433;-79
2023/06/02 05:41:40;;;;;;;13.32;3.20;;;;;;;;;;5021011;28;20469;-78
2023/06/02 05:44:05;;;;;;;14.48;3.63;;;;;;;;;;5007888;28;20404;-77
2023/06/02 05:46:31;;;;;;;11.48;2.50;;;;;;;;;;5007056;28;20037;-79
2023/06/02 05:48:56;;;;;;;11.77;3.20;;;;;;;;;;5021838;28;20037;-80
2023/06/02 05:51:22;;;;;;;12.18;3.15;;;;;;;;;;5024249;28;20044;-80
2023/06/02 05:53:50;;;;;;;9.93;2.92;;;;;;;;;;5022710;28;20404;-78
2023/06/02 05:56:16;;;;;;;17.70;3.05;;;;;;;;;;5020694;28;20040;-79
2023/06/02 05:58:41;;;;;;;9.82;2.95;;;;;;;;;;5006324;28;20721;-81
2023/06/02 06:01:08;;;;;;;9.18;2.28;;;;;;;;;;5023149;28;20033;-79
2023/06/02 06:03:34;;;;;;;11.93;2.78;;;;;;;;;;5020316;28;20041;-80
2023/06/02 06:06:00;;;;;;;12.10;3.25;;;;;;;;;;5011769;28;20122;-80
2023/06/02 06:08:25;;;;;;;8.18;2.55;;;;;;;;;;5013163;28;20053;-79
2023/06/02 06:10:51;;;;;;;11.93;2.65;;;;;;;;;;5006499;28;20043;-81
2023/06/02 06:13:16;;;;;;;9.27;2.38;;;;;;;;;;5006458;28;20084;-80
2023/06/02 06:15:42;;;;;;;8.10;2.70;;;;;;;;;;4998456;28;20033;-79
2023/06/02 06:18:07;;;;;;;8.35;2.92;;;;;;;;;;5021858;28;20400;-79
2023/06/02 06:20:32;;;;;;;10.68;3.10;;;;;;;;;;5026655;28;20512;-78
2023/06/02 06:23:00;;;;;;;10.77;3.13;;;;;;;;;;5009676;28;20040;-78
2023/06/02 06:25:26;;;;;;;14.65;2.58;;;;;;;;;;5042796;28;20052;-79
2023/06/02 06:27:51;;;;;;;12.15;2.70;;;;;;;;;;5024067;28;20029;-79
2023/06/02 06:30:17;;;;;;;9.77;2.92;;;;;;;;;;5043248;28;20044;-80
2023/06/02 06:32:42;;;;;;;11.05;3.20;;;;;;;;;;5039976;28;20040;-80
2023/06/02 06:35:07;;;;;;;12.57;3.20;;;;;;;;;;5026300;28;20040;-81
2023/06/02 06:37:33;;;;;;;16.48;3.80;;;;;;;;;;5040957;28;20051;-81
2023/06/02 06:39:58;;;;;;;11.65;3.15;;;;;;;;;;5022697;28;20063;-80
2023/06/02 06:42:24;;;;;;;8.23;2.97;;;;;;;;;;5040613;28;20156;-80
2023/06/02 06:44:50;;;;;;;12.32;3.17;;;;;;;;;;5023639;28;20041;-80
2023/06/02 06:47:16;;;;;;;9.02;3.13;;;;;;;;;;5007607;28;20036;-81
2023/06/02 06:49:41;;;;;;;10.68;2.67;;;;;;;;;;5008250;28;20099;-80
2023/06/02 06:52:10;;;;;;;12.68;3.35;;;;;;;;;;5023642;28;20037;-83
2023/06/02 06:54:35;;;;;;;15.50;3.40;;;;;;;;;;5043193;28;20090;-80
2023/06/02 06:57:01;;;;;;;21.90;3.80;;;;;;;;;;5042410;28;20041;-80
2023/06/02 06:59:26;;;;;;;14.68;3.42;;;;;;;;;;5022847;28;20439;-81
2023/06/02 07:01:51;;;;;;;14.07;3.63;;;;;;;;;;5001096;28;20044;-81
2023/06/02 07:04:17;;;;;;;12.10;3.50;;;;;;;;;;5038062;28;20643;-81
2023/06/02 07:06:43;;;;;;;15.63;3.45;;;;;;;;;;5020909;28;20043;-81
2023/06/02 07:09:08;;;;;;;13.80;3.35;;;;;;;;;;5038501;28;20037;-80
2023/06/02 07:11:34;;;;;;;15.73;3.67;;;;;;;;;;5022470;28;20059;-81
2023/06/02 07:13:59;;;;;;;16.33;4.03;;;;;;;;;;5004503;28;20044;-81
2023/06/02 07:16:25;;;;;;;18.77;4.00;;;;;;;;;;5023596;28;20037;-80
2023/06/02 07:18:50;;;;;;;13.05;3.35;;;;;;;;;;5021166;28;24676;-80
2023/06/02 07:21:16;;;;;;;10.98;3.35;;;;;;;;;;5023260;28;20045;-76
2023/06/02 07:23:41;;;;;;;13.02;3.42;;;;;;;;;;5040775;28;20409;-76
2023/06/02 07:26:07;;;;;;;8.63;2.83;;;;;;;;;;5021260;28;20067;-77
2023/06/02 07:28:32;;;;;;;13.52;4.03;;;;;;;;;;5007110;28;20048;-77
2023/06/02 07:30:57;;;;;;;14.40;4.20;;;;;;;;;;5023422;28;20033;-77
2023/06/02 07:33:23;;;;;;;10.00;3.58;;;;;;;;;;5005886;28;20443;-76
2023/06/02 07:35:48;;;;;;;15.48;4.13;;;;;;;;;;5020822;28;20037;-76
2023/06/02 07:38:14;;;;;;;14.60;4.63;;;;;;;;;;5008082;28;20055;-76
2023/06/02 07:40:39;;;;;;;13.98;4.43;;;;;;;;;;5040770;28;20147;-76
2023/06/02 07:43:04;;;;;;;12.15;4.25;;;;;;;;;;5005908;28;20572;-76
2023/06/02 07:45:30;;;;;;;19.83;5.63;;;;;;;;;;5038781;28;20520;-76
2023/06/02 07:47:56;;;;;;;17.40;5.35;;;;;;;;;;5040823;28;20033;-76
2023/06/02 07:50:21;;;;;;;17.25;5.05;;;;;;;;;;5020043;28;20116;-76
2023/06/02 07:52:47;;;;;;;13.00;4.68;;;;;;;;;;5024723;28;20392;-77
2023/06/02 07:55:12;;;;;;;15.15;3.88;;;;;;;;;;5022486;28;20033;-76
2023/06/02 07:57:38;;;;;;;16.83;4.50;;;;;;;;;;5009885;28;20110;-76
2023/06/02 08:00:11;;;;;;;15.25;5.18;;;;;;;;;;5023594;28;20537;-77
2023/06/02 08:02:37;;;;;;;17.38;5.32;;;;;;;;;;5023806;28;20037;-77
2023/06/02 08:05:02;;;;;;;13.32;5.38;;;;;;;;;;5019302;28;20037;-77
2023/06/02 08:07:28;;;;;;;14.65;5.03;;;;;;;;;;5040300;28;20132;-77
2023/06/02 08:09:53;;;;;;;12.77;5.35;;;;;;;;;;5006916;28;20029;-76
2023/06/02 08:12:20;;;;;;;10.05;4.57;;;;;;;;;;5022916;28;20033;-77
2023/06/02 08:14:46;;;;;;;11.50;4.63;;;;;;;;;;5007158;28;20459;-76
2023/06/02 08:17:12;;;;;;;11.70;4.43;;;;;;;;;;5021743;28;20121;-77
2023/06/02 08:19:37;;;;;;;13.27;4.53;;;;;;;;;;5041110;28;20441;-77
2023/06/02 08:22:03;;;;;;;12.77;4.15;;;;;;;;;;5021682;28;20467;-77
2023/06/02 08:24:29;;;;;;;8.25;3.75;;;;;;;;;;5039412;28;20037;-77
2023/06/02 08:26:55;;;;;;;8.80;3.92;;;;;;;;;;5006593;28;20033;-76
2023/06/02 08:29:42;;;;;;;11.18;4.47;;;;;;;;;;5007802;28;20044;-77
2023/06/02 08:32:07;;;;;;;11.05;3.38;;;;;;;;;;4960774;28;20039;-77
2023/06/02 08:34:32;;;;;;;9.05;3.50;;;;;;;;;;4961382;28;20045;-77
2023/06/02 08:37:00;;;;;;;9.48;3.10;;;;;;;;;;4947856;28;20777;-77
2023/06/02 08:39:29;;;;;;;12.68;3.83;;;;;;;;;;4945519;28;20514;-77
2023/06/02 08:41:55;;;;;;;8.68;3.05;;;;;;;;;;4942211;28;20089;-77
2023/06/02 08:44:21;;;;;;;9.88;3.50;;;;;;;;;;4957771;28;20105;-77
2023/06/02 08:46:47;;;;;;;10.25;3.83;;;;;;;;;;4960907;28;20035;-77
2023/06/02 08:49:17;;;;;;;6.63;2.88;;;;;;;;;;4942080;28;20046;-77
2023/06/02 08:51:43;;;;;;;9.68;3.38;;;;;;;;;;4958395;28;20034;-77
2023/06/02 08:54:11;;;;;;;12.35;2.85;;;;;;;;;;4960579;28;20038;-77
2023/06/02 08:56:36;;;;;;;9.07;2.85;;;;;;;;;;4943015;28;20039;-77
2023/06/02 08:59:02;;;;;;;15.15;3.28;;;;;;;;;;4948723;28;20061;-78
2023/06/02 09:01:27;;;;;;;8.23;2.78;;;;;;;;;;4948007;28;20073;-77
2023/06/02 09:03:53;;;;;;;10.05;2.90;;;;;;;;;;4964460;28;20055;-78
2023/06/02 09:06:20;;;;;;;6.57;2.60;;;;;;;;;;4964808;28;20467;-77
2023/06/02 09:08:56;;;;;;;6.25;2.38;;;;;;;;;;4987737;28;20488;-76
2023/06/02 09:11:22;;;;;;;5.90;2.45;;;;;;;;;;5028078;28;20107;-77
2023/06/02 09:13:47;;;;;;;4.72;2.00;;;;;;;;;;5027573;28;20552;-77
2023/06/02 09:16:13;;;;;;;4.68;2.15;;;;;;;;;;5044096;28;20035;-77
2023/06/02 09:18:38;;;;;;;7.95;2.40;;;;;;;;;;5014584;28;20060;-77
2023/06/02 09:21:04;;;;;;;5.18;1.92;;;;;;;;;;5043628;28;20052;-78
2023/06/02 09:23:44;;;;;;;5.93;2.10;;;;;;;;;;5024130;28;20621;-77
2023/06/02 09:26:22;;;;;;;6.82;1.83;;;;;;;;;;5017411;28;20454;-77
2023/06/02 09:29:07;;;;;;;5.63;1.83;;;;;;;;;;5044714;28;20076;-77
2023/06/02 09:31:44;;;;;;;8.00;2.17;;;;;;;;;;5026972;28;20412;-77
2023/06/02 09:34:10;;;;;;;6.70;1.73;;;;;;;;;;5018753;28;20132;-78
2023/06/02 09:36:36;;;;;;;5.30;1.67;;;;;;;;;;5026229;28;20160;-78
2023/06/02 09:39:03;;;;;;;4.30;1.52;;;;;;;;;;5028160;28;20035;-80
2023/06/02 09:41:30;;;;;;;3.70;1.70;;;;;;;;;;5045630;28;20037;-77
2023/06/02 09:43:56;;;;;;;3.92;1.58;;;;;;;;;;5026232;28;20451;-77
2023/06/02 09:46:23;;;;;;;3.15;1.50;;;;;;;;;;5023027;28;20045;-77
2023/06/02 09:48:55;;;;;;;3.42;1.65;;;;;;;;;;5009055;28;20064;-77
2023/06/02 09:51:23;;;;;;;3.40;1.50;;;;;;;;;;5026200;28;20515;-77
2023/06/02 09:53:48;;;;;;;3.22;1.50;;;;;;;;;;5043358;28;20037;-77
2023/06/02 09:56:14;;;;;;;4.40;1.40;;;;;;;;;;5023906;28;20033;-77
2023/06/02 09:58:39;;;;;;;3.53;1.35;;;;;;;;;;5017761;28;20073;-77
2023/06/02 10:01:05;;;;;;;2.80;1.10;;;;;;;;;;5025521;28;20068;-77
2023/06/02 10:03:30;;;;;;;6.13;1.02;;;;;;;;;;5043291;28;20029;-77
2023/06/02 10:06:34;;;;;;;2.58;1.10;;;;;;;;;;5026720;28;20484;-81
2023/06/02 10:09:14;;;;;;;2.40;1.10;;;;;;;;;;5038686;28;20039;-81
2023/06/02 10:12:27;;;;;;;3.88;1.00;;;;;;;;;;5010809;28;20060;-81
2023/06/02 10:15:10;;;;;;;3.25;1.05;;;;;;;;;;4946059;28;20485;-81
2023/06/02 10:17:41;;;;;;;3.53;1.23;;;;;;;;;;4946321;28;20130;-81
2023/06/02 10:20:26;;;;;;;2.85;0.93;;;;;;;;;;4963414;28;20470;-81
2023/06/02 10:23:03;;;;;;;2.80;0.75;;;;;;;;;;4946398;28;20995;-81
2023/06/02 10:26:06;;;;;;;1.52;0.68;;;;;;;;;;4945377;28;20094;-81
2023/06/02 10:28:32;;;;;;;2.92;1.00;;;;;;;;;;4963252;28;20165;-82
2023/06/02 10:31:08;;;;;;;2.25;0.90;;;;;;;;;;4931606;28;20054;-82
2023/06/02 10:33:44;;;;;;;3.85;0.75;;;;;;;;;;4931358;28;20102;-77
2023/06/02 10:36:12;;;;;;;1.63;0.50;;;;;;;;;;4962834;28;20596;-78
2023/06/02 10:38:38;;;;;;;1.83;0.70;;;;;;;;;;4946306;28;20106;-81
2023/06/02 10:41:04;;;;;;;2.43;0.80;;;;;;;;;;4962756;28;20039;-74
2023/06/02 10:43:29;;;;;;;3.58;0.63;;;;;;;;;;4930836;28;20042;-79
2023/06/02 10:46:17;;;;;;;3.15;0.60;;;;;;;;;;4998098;28;20484;-80
2023/06/02 10:48:43;;;;;;;2.40;0.57;;;;;;;;;;5021924;28;20041;-79
2023/06/02 10:51:10;;;;;;;1.90;0.60;;;;;;;;;;5043049;28;20392;-80
2023/06/02 10:54:07;;;;;;;2.38;0.55;;;;;;;;;;5024116;28;20033;-79
2023/06/02 10:56:35;;;;;;;3.50;0.68;;;;;;;;;;5040468;28;20056;-80
2023/06/02 10:59:00;;;;;;;2.33;0.70;;;;;;;;;;5039598;28;20037;-80
2023/06/02 11:01:47;;;;;;;4.35;0.90;;;;;;;;;;5003798;28;20029;-80
2023/06/02 11:04:25;;;;;;;2.25;0.70;;;;;;;;;;5016730;28;20496;-80
2023/06/02 11:07:15;;;;;;;4.85;0.70;;;;;;;;;;5041856;28;20565;-79
2023/06/02 11:09:44;;;;;;;2.08;0.57;;;;;;;;;;5041662;28;20063;-80
2023/06/02 11:12:10;;;;;;;2.80;0.55;;;;;;;;;;5041514;28;20040;-80
2023/06/02 11:15:12;;;;;;;2.13;0.70;;;;;;;;;;5008090;28;20036;-81
2023/06/02 11:17:37;;;;;;;2.80;0.70;;;;;;;;;;5015904;28;20094;-80
2023/06/02 11:20:06;;;;;;;2.50;0.60;;;;;;;;;;5000268;28;20442;-79
2023/06/02 11:22:33;;;;;;;1.40;0.50;;;;;;;;;;5040643;28;20065;-79
2023/06/02 11:24:59;;;;;;;3.15;0.80;;;;;;;;;;5008947;28;20037;-80
2023/06/02 11:27:57;;;;;;;2.27;0.60;;;;;;;;;;5023377;28;20036;-79
2023/06/02 11:30:24;;;;;;;2.50;0.70;;;;;;;;;;4982290;28;20283;-79
2023/06/02 11:32:51;;;;;;;5.20;0.63;;;;;;;;;;5000500;28;20041;-81
2023/06/02 11:35:20;;;;;;;;;;;;;;;;;;5023685;28;20551;-81
2023/06/02 11:38:02;;;;;;;3.28;0.82;;;;;;;;;;5022310;28;19938;-81
2023/06/02 11:40:29;;;;;;;2.38;0.85;;;;;;;;;;5041307;28;20041;-81
2023/06/02 11:42:54;;;;;;;2.50;0.75;;;;;;;;;;5009322;28;20404;-81
2023/06/02 11:45:25;;;;;;;1.98;0.73;;;;;;;;;;5036805;28;20052;-81
2023/06/02 11:47:59;;;;;;;3.35;0.85;;;;;;;;;;5007793;28;20504;-80
2023/06/02 11:50:24;;;;;;;2.92;0.73;;;;;;;;;;5039631;28;20037;-81
2023/06/02 11:52:49;;;;;;;3.13;1.10;;;;;;;;;;5024315;28;20087;-81
2023/06/02 11:55:15;;;;;;;2.33;0.70;;;;;;;;;;5024500;28;20059;-80
2023/06/02 11:57:42;;;;;;;2.58;0.80;;;;;;;;;;5040350;28;20044;-80
2023/06/02 12:00:12;;;;;;;;;;;;;;;;;;5008378;28;20564;-80
2023/06/02 12:02:48;;;;;;;2.83;0.60;;;;;;;;;;5022570;28;19970;-81
2023/06/02 12:05:36;;;;;;;1.85;0.50;;;;;;;;;;5022717;28;20040;-81
2023/06/02 12:08:08;;;;;;;;;;;;;;;;;;4999189;28;20922;-80
2023/06/02 12:10:35;;;;;;;3.35;0.75;;;;;;;;;;5039799;28;19959;-80
2023/06/02 12:13:01;;;;;;;;;;;;;;;;;;5040402;28;20060;-77
2023/06/02 12:15:33;;;;;;;7.28;0.77;;;;;;;;;;5021973;28;25430;-75
2023/06/02 12:18:04;;;;;;;2.72;0.77;;;;;;;;;;5014554;28;20530;-77
2023/06/02 12:20:41;;;;;;;2.65;0.73;;;;;;;;;;5024709;28;20048;-76
2023/06/02 12:23:10;;;;;;;2.15;0.63;;;;;;;;;;5012251;28;20037;-76
2023/06/02 12:25:37;;;;;;;2.00;0.70;;;;;;;;;;5023933;28;20036;-77
2023/06/02 12:28:13;;;;;;;3.15;0.50;;;;;;;;;;5006480;28;20396;-78
2023/06/02 12:30:39;;;;;;;2.60;0.60;;;;;;;;;;5042534;28;20044;-77
2023/06/02 12:33:12;;;;;;;2.25;0.55;;;;;;;;;;5017920;28;20053;-77
2023/06/02 12:35:38;;;;;;;1.98;0.52;;;;;;;;;;5044732;28;20539;-77
2023/06/02 12:38:05;;;;;;;2.28;0.82;;;;;;;;;;5027361;28;20025;-77
2023/06/02 12:40:32;;;;;;;3.42;0.70;;;;;;;;;;5044598;28;20033;-76
2023/06/02 12:42:58;;;;;;;4.93;0.60;;;;;;;;;;5027395;28;20301;-75
2023/06/02 12:45:23;;;;;;;5.35;0.90;;;;;;;;;;5043587;28;20044;-74
2023/06/02 12:47:51;;;;;;;4.65;0.70;;;;;;;;;;5004543;28;20045;-74
2023/06/02 12:50:18;;;;;;;2.63;0.60;;;;;;;;;;5044133;28;20033;-75
2023/06/02 12:52:44;;;;;;;4.00;0.63;;;;;;;;;;5027243;28;20025;-76
2023/06/02 12:55:10;;;;;;;1.23;0.40;;;;;;;;;;5042320;28;20059;-75
2023/06/02 12:57:36;;;;;;;3.10;0.50;;;;;;;;;;5046600;28;20036;-76
2023/06/02 13:00:03;;;;;;;1.95;0.73;;;;;;;;;;5045679;28;20029;-76
2023/06/02 13:02:28;;;;;;;1.92;0.60;;;;;;;;;;5024859;28;20508;-75
2023/06/02 13:04:54;;;;;;;3.47;0.65;;;;;;;;;;5027656;28;20037;-74
2023/06/02 13:07:20;;;;;;;2.70;0.60;;;;;;;;;;5024803;28;20461;-75
2023/06/02 13:09:46;;;;;;;1.10;0.40;;;;;;;;;;5046237;28;20037;-75
2023/06/02 13:12:12;;;;;;;1.60;0.40;;;;;;;;;;5044684;28;20461;-75
2023/06/02 13:14:37;;;;;;;2.42;0.43;;;;;;;;;;5040015;28;20055;-76
2023/06/02 13:17:03;;;;;;;2.40;0.73;;;;;;;;;;5043397;28;20124;-77
2023/06/02 13:19:48;;;;;;;1.38;0.40;;;;;;;;;;5044843;28;20045;-76
2023/06/02 13:22:14;;;;;;;3.83;0.40;;;;;;;;;;4987669;28;20052;-75
2023/06/02 13:24:39;;;;;;;3.58;0.65;;;;;;;;;;4970713;28;20161;-75
2023/06/02 13:27:05;;;;;;;4.35;0.45;;;;;;;;;;4955246;28;20062;-75
2023/06/02 13:29:30;;;;;;;1.27;0.40;;;;;;;;;;4982770;28;20118;-75
2023/06/02 13:31:56;;;;;;;2.83;0.38;;;;;;;;;;4949252;28;20066;-76
2023/06/02 13:34:21;;;;;;;1.52;0.50;;;;;;;;;;4984325;28;20852;-75
2023/06/02 13:36:47;;;;;;;5.43;0.50;;;;;;;;;;4985120;28;20538;-77
2023/06/02 13:39:16;;;;;;;2.15;0.40;;;;;;;;;;4969346;28;20041;-76
2023/06/02 13:41:42;;;;;;;1.50;0.30;;;;;;;;;;4982175;28;20150;-76
2023/06/02 13:44:11;;;;;;;1.50;0.50;;;;;;;;;;4983811;28;20129;-75
2023/06/02 13:46:39;;;;;;;3.70;0.57;;;;;;;;;;4967923;28;20042;-76
2023/06/02 13:49:04;;;;;;;2.35;0.35;;;;;;;;;;4984007;28;20080;-75
2023/06/02 13:51:30;;;;;;;0.77;0.28;;;;;;;;;;4983614;28;20132;-75
2023/06/02 13:53:55;;;;;;;1.02;0.35;;;;;;;;;;4984510;28;20054;-75
2023/06/02 13:56:21;;;;;;;3.05;0.50;;;;;;;;;;4968184;28;20121;-76
2023/06/02 13:58:47;;;;;;;3.05;0.47;;;;;;;;;;5001698;28;20464;-76
2023/06/02 14:01:12;;;;;;;2.15;0.50;;;;;;;;;;5026617;28;20106;-76
2023/06/02 14:03:38;;;;;;;1.20;0.30;;;;;;;;;;5027814;28;20033;-76
2023/06/02 14:06:03;;;;;;;1.83;0.38;;;;;;;;;;5043369;28;20114;-77
2023/06/02 14:08:29;;;;;;;2.35;0.40;;;;;;;;;;5008123;28;20039;-75
2023/06/02 14:10:54;;;;;;;2.40;0.40;;;;;;;;;;5017265;28;20041;-77
2023/06/02 14:13:19;;;;;;;1.73;0.40;;;;;;;;;;5044634;28;20041;-75
2023/06/02 14:15:46;;;;;;;2.08;0.47;;;;;;;;;;5025084;28;20036;-75
2023/06/02 14:18:11;;;;;;;1.30;0.40;;;;;;;;;;5010443;28;20141;-74
2023/06/02 14:20:37;;;;;;;1.58;0.50;;;;;;;;;;5025736;28;20068;-76
2023/06/02 14:23:02;;;;;;;2.35;0.50;;;;;;;;;;5027221;28;20072;-76
2023/06/02 14:25:28;;;;;;;1.67;0.50;;;;;;;;;;5043402;28;20037;-79
2023/06/02 14:27:54;;;;;;;1.73;0.52;;;;;;;;;;5027346;28;20036;-79
2023/06/02 14:30:20;;;;;;;2.55;0.47;;;;;;;;;;5008456;28;20037;-79
2023/06/02 14:32:45;;;;;;;1.58;0.30;;;;;;;;;;5041836;28;20037;-79
2023/06/02 14:35:11;;;;;;;1.95;0.43;;;;;;;;;;5026341;28;20031;-79
2023/06/02 14:37:36;;;;;;;2.05;0.60;;;;;;;;;;5026241;28;20064;-79
2023/06/02 14:40:03;;;;;;;1.70;0.50;;;;;;;;;;5025487;28;20033;-79